createdAt,value
2018-10-11T00:01:58.321Z,60.60
2018-10-11T00:04:27.155Z,65.27
2018-10-11T00:06:56.028Z,56.37
2018-10-11T00:09:24.853Z,62.53
2018-10-11T00:11:53.762Z,63.53
2018-10-11T00:14:22.660Z,65.47
2018-10-11T00:16:51.522Z,62.43
2018-10-11T00:19:20.740Z,74.87
2018-10-11T00:21:50.367Z,72.70
2018-10-11T00:24:19.203Z,74.37
2018-10-11T00:26:48.012Z,63.60
2018-10-11T00:29:16.850Z,82.77
2018-10-11T00:31:45.683Z,76.63
2018-10-11T00:34:14.541Z,79.63
2018-10-11T00:36:43.400Z,78.17
2018-10-11T00:39:12.247Z,74.30
2018-10-11T00:41:41.112Z,76.90
2018-10-11T00:44:10.079Z,84.40
2018-10-11T00:46:38.918Z,69.97
2018-10-11T00:49:07.802Z,68.23
2018-10-11T00:51:36.709Z,73.37
2018-10-11T00:54:05.538Z,67.10
2018-10-11T00:56:34.476Z,73.03
2018-10-11T00:59:03.623Z,75.07
2018-10-11T01:01:32.588Z,67.60
2018-10-11T01:04:01.437Z,70.37
2018-10-11T01:06:30.290Z,77.77
2018-10-11T01:08:59.164Z,73.53
2018-10-11T01:11:28.008Z,66.40
2018-10-11T01:13:56.859Z,73.97
2018-10-11T01:16:25.718Z,78.07
2018-10-11T01:18:54.569Z,78.20
2018-10-11T01:21:23.394Z,73.20
2018-10-11T01:23:52.441Z,73.70
2018-10-11T01:26:21.414Z,82.07
2018-10-11T01:28:50.278Z,74.70
2018-10-11T01:31:24.292Z,67.40
2018-10-11T01:33:53.595Z,73.03
2018-10-11T01:36:22.692Z,77.70
2018-10-11T01:38:53.336Z,71.47
2018-10-11T01:41:22.919Z,80.17
2018-10-11T01:43:51.799Z,72.80
2018-10-11T01:46:20.838Z,71.70
2018-10-11T01:48:49.669Z,69.87
2018-10-11T01:51:18.527Z,71.30
2018-10-11T01:53:47.464Z,75.43
2018-10-11T01:56:16.345Z,74.20
2018-10-11T01:58:45.170Z,68.40
2018-10-11T02:01:14.011Z,65.00
2018-10-11T02:03:42.893Z,73.10
2018-10-11T02:06:11.816Z,71.57
2018-10-11T02:08:40.682Z,71.07
2018-10-11T02:11:09.593Z,73.70
2018-10-11T02:13:38.494Z,69.70
2018-10-11T02:16:07.349Z,78.60
2018-10-11T02:18:36.183Z,72.20
2018-10-11T02:21:05.128Z,77.67
2018-10-11T02:23:34.013Z,74.93
2018-10-11T02:26:02.868Z,70.93
2018-10-11T02:28:31.741Z,71.60
2018-10-11T02:31:00.615Z,72.53
2018-10-11T02:33:29.529Z,72.07
2018-10-11T02:35:58.446Z,84.93
2018-10-11T02:38:27.523Z,76.60
2018-10-11T02:40:56.479Z,66.87
2018-10-11T02:43:25.354Z,71.10
2018-10-11T02:45:54.239Z,71.70
2018-10-11T02:48:23.105Z,71.90
2018-10-11T02:50:52.019Z,66.00
2018-10-11T02:53:20.984Z,69.03
2018-10-11T02:55:49.901Z,67.17
2018-10-11T02:58:36.062Z,65.80
2018-10-11T03:01:05.055Z,77.53
2018-10-11T03:03:34.052Z,77.17
2018-10-11T03:06:03.047Z,71.53
2018-10-11T03:08:32.018Z,85.10
2018-10-11T03:11:00.906Z,78.50
2018-10-11T03:13:29.839Z,93.83
2018-10-11T03:15:58.760Z,70.37
2018-10-11T03:18:27.692Z,72.87
2018-10-11T03:20:56.533Z,66.67
2018-10-11T03:23:25.382Z,74.00
2018-10-11T03:25:54.232Z,74.47
2018-10-11T03:28:23.092Z,73.33
2018-10-11T03:30:51.954Z,75.53
2018-10-11T03:33:20.814Z,68.80
2018-10-11T03:35:49.662Z,74.90
2018-10-11T03:38:18.518Z,77.97
2018-10-11T03:40:47.391Z,78.10
2018-10-11T03:43:16.226Z,67.43
2018-10-11T03:45:45.096Z,76.57
2018-10-11T03:48:13.931Z,79.00
2018-10-11T03:50:42.794Z,78.47
2018-10-11T03:53:11.623Z,81.60
2018-10-11T03:55:40.447Z,70.57
2018-10-11T03:58:09.326Z,77.43
2018-10-11T04:00:38.201Z,78.40
2018-10-11T04:03:07.085Z,73.63
2018-10-11T04:05:36.005Z,78.77
2018-10-11T04:08:04.907Z,72.33
2018-10-11T04:10:33.818Z,75.97
2018-10-11T04:13:02.736Z,75.87
2018-10-11T04:15:31.682Z,83.93
2018-10-11T04:18:00.599Z,78.07
2018-10-11T04:20:29.502Z,79.60
2018-10-11T04:22:58.423Z,85.13
2018-10-11T04:25:27.887Z,78.67
2018-10-11T04:27:56.999Z,74.33
2018-10-11T04:30:26.265Z,78.00
2018-10-11T04:32:55.503Z,83.83
2018-10-11T04:35:24.413Z,75.00
2018-10-11T04:37:53.322Z,81.37
2018-10-11T04:40:22.188Z,86.50
2018-10-11T04:42:51.072Z,83.80
2018-10-11T04:45:19.987Z,82.07
2018-10-11T04:47:49.046Z,80.40
2018-10-11T04:50:17.960Z,81.47
2018-10-11T04:52:46.869Z,73.90
2018-10-11T04:55:15.716Z,76.77
2018-10-11T04:57:44.660Z,89.77
2018-10-11T05:00:13.486Z,100.17
2018-10-11T05:02:42.388Z,80.00
2018-10-11T05:05:11.304Z,93.57
2018-10-11T05:07:40.134Z,99.03
2018-10-11T05:10:09.048Z,85.70
2018-10-11T05:12:37.914Z,91.07
2018-10-11T05:15:07.424Z,78.03
2018-10-11T05:17:36.525Z,87.10
2018-10-11T05:20:05.709Z,87.20
2018-10-11T05:22:34.546Z,87.43
2018-10-11T05:25:03.430Z,88.60
2018-10-11T05:27:32.247Z,95.30
2018-10-11T05:30:01.123Z,92.60
2018-10-11T05:32:30.359Z,85.57
2018-10-11T05:34:59.226Z,108.83
2018-10-11T05:37:28.082Z,87.87
2018-10-11T05:39:56.930Z,91.83
2018-10-11T05:42:25.830Z,86.83
2018-10-11T05:45:04.950Z,81.33
2018-10-11T05:47:33.814Z,90.50
2018-10-11T05:50:02.830Z,73.67
2018-10-11T05:52:31.646Z,72.73
2018-10-11T05:55:00.526Z,83.50
2018-10-11T05:57:29.406Z,78.50
2018-10-11T05:59:58.422Z,68.10
2018-10-11T06:02:27.603Z,70.87
2018-10-11T06:04:56.720Z,77.23
2018-10-11T06:07:25.600Z,65.57
2018-10-11T06:09:54.474Z,70.80
2018-10-11T06:12:23.311Z,65.30
2018-10-11T06:14:52.119Z,77.87
2018-10-11T06:17:20.953Z,92.27
2018-10-11T06:19:49.770Z,81.00
2018-10-11T06:22:18.600Z,67.03
2018-10-11T06:24:47.537Z,73.43
2018-10-11T06:27:16.384Z,68.13
2018-10-11T06:29:45.232Z,69.67
2018-10-11T06:32:14.105Z,67.30
2018-10-11T06:34:42.959Z,65.97
2018-10-11T06:37:11.811Z,63.20
2018-10-11T06:39:40.617Z,67.13
2018-10-11T06:42:09.503Z,65.20
2018-10-11T06:44:45.065Z,59.00
2018-10-11T06:47:16.815Z,64.33
2018-10-11T06:49:46.322Z,61.23
2018-10-11T06:52:15.101Z,67.13
2018-10-11T06:54:44.240Z,46.00
2018-10-11T06:57:13.152Z,53.93
2018-10-11T06:59:42.043Z,54.93
2018-10-11T07:02:10.874Z,57.40
2018-10-11T07:04:39.798Z,54.10
2018-10-11T07:07:08.680Z,54.40
2018-10-11T07:09:37.542Z,46.37
2018-10-11T07:12:06.451Z,53.67
2018-10-11T07:14:35.479Z,53.73
2018-10-11T07:17:04.377Z,51.90
2018-10-11T07:19:33.347Z,49.57
2018-10-11T07:22:02.092Z,59.10
2018-10-11T07:24:30.971Z,53.80
2018-10-11T07:26:59.801Z,49.73
2018-10-11T07:29:28.627Z,46.80
2018-10-11T07:31:57.494Z,36.73
2018-10-11T07:34:27.326Z,42.80
2018-10-11T07:36:56.120Z,43.10
2018-10-11T07:39:24.939Z,48.00
2018-10-11T07:41:53.795Z,41.33
2018-10-11T07:44:22.647Z,48.83
2018-10-11T07:46:51.503Z,50.40
2018-10-11T07:49:20.404Z,42.67
2018-10-11T07:51:49.239Z,37.43
2018-10-11T07:54:18.070Z,36.13
2018-10-11T07:56:47.027Z,48.63
2018-10-11T07:59:15.866Z,43.40
2018-10-11T08:01:44.721Z,40.53
2018-10-11T08:04:13.555Z,44.23
2018-10-11T08:06:42.417Z,38.07
2018-10-11T08:09:11.330Z,35.50
2018-10-11T08:11:40.246Z,32.30
2018-10-11T08:14:16.554Z,35.10
2018-10-11T08:16:45.515Z,39.40
2018-10-11T08:19:14.588Z,41.10
2018-10-11T08:21:43.872Z,38.73
2018-10-11T08:24:12.764Z,38.10
2018-10-11T08:26:41.741Z,40.70
2018-10-11T08:29:10.595Z,34.17
2018-10-11T08:31:39.423Z,45.10
2018-10-11T08:34:08.583Z,34.13
2018-10-11T08:36:37.427Z,38.50
2018-10-11T08:39:09.637Z,38.47
2018-10-11T08:41:38.876Z,32.00
2018-10-11T08:44:08.423Z,37.63
2018-10-11T08:46:37.302Z,36.53
2018-10-11T08:49:06.176Z,36.20
2018-10-11T08:51:34.984Z,34.33
2018-10-11T08:54:15.604Z,35.63
2018-10-11T08:56:44.535Z,33.10
2018-10-11T08:59:13.436Z,36.97
2018-10-11T09:01:42.206Z,35.37
2018-10-11T09:04:11.077Z,27.07
2018-10-11T09:06:39.883Z,32.47
2018-10-11T09:09:09.765Z,49.43
2018-10-11T09:11:38.603Z,26.70
2018-10-11T09:14:07.563Z,32.70
2018-10-11T09:16:36.441Z,26.70
2018-10-11T09:19:05.359Z,30.87
2018-10-11T09:21:34.223Z,30.20
2018-10-11T09:24:03.067Z,28.33
2018-10-11T09:26:31.938Z,34.37
2018-10-11T09:29:00.774Z,25.47
2018-10-11T09:31:29.610Z,26.93
2018-10-11T09:33:58.430Z,30.50
2018-10-11T09:36:27.366Z,31.70
2018-10-11T09:38:56.114Z,25.40
2018-10-11T09:41:24.946Z,27.00
2018-10-11T09:43:53.823Z,25.10
2018-10-11T09:46:22.652Z,29.07
2018-10-11T09:48:51.643Z,26.40
2018-10-11T09:51:20.371Z,32.03
2018-10-11T09:53:49.208Z,25.87
2018-10-11T09:56:18.063Z,33.37
2018-10-11T09:58:46.916Z,25.33
2018-10-11T10:01:21.055Z,30.10
2018-10-11T10:03:49.930Z,27.03
2018-10-11T10:06:18.946Z,34.60
2018-10-11T10:08:47.783Z,24.57
2018-10-11T10:11:16.614Z,31.80
2018-10-11T10:13:45.498Z,29.57
2018-10-11T10:16:14.377Z,26.60
2018-10-11T10:18:43.197Z,28.77
2018-10-11T10:21:12.110Z,23.50
2018-10-11T10:23:40.899Z,25.80
2018-10-11T10:26:09.736Z,26.47
2018-10-11T10:28:38.599Z,25.40
2018-10-11T10:31:07.455Z,31.13
2018-10-11T10:33:36.316Z,26.57
2018-10-11T10:36:05.147Z,26.00
2018-10-11T10:38:34.019Z,39.37
2018-10-11T10:41:02.841Z,30.07
2018-10-11T10:43:31.691Z,21.63
2018-10-11T10:46:00.541Z,25.10
2018-10-11T10:48:29.414Z,32.30
2018-10-11T10:50:58.246Z,26.67
2018-10-11T10:53:27.059Z,24.93
2018-10-11T10:55:55.983Z,24.70
2018-10-11T10:58:24.823Z,26.47
2018-10-11T11:00:53.754Z,30.70
2018-10-11T11:03:22.576Z,23.63
2018-10-11T11:05:51.418Z,26.10
2018-10-11T11:08:20.264Z,23.03
2018-10-11T11:10:49.102Z,29.70
2018-10-11T11:13:18.093Z,21.17
2018-10-11T11:15:46.975Z,24.70
2018-10-11T11:18:15.821Z,28.53
2018-10-11T11:20:44.655Z,25.40
2018-10-11T11:23:13.559Z,26.43
2018-10-11T11:25:42.463Z,25.80
2018-10-11T11:28:11.283Z,29.40
2018-10-11T11:30:40.155Z,28.23
2018-10-11T11:33:09.024Z,27.93
2018-10-11T11:35:37.876Z,22.77
2018-10-11T11:38:06.719Z,31.60
2018-10-11T11:40:35.587Z,21.20
2018-10-11T11:43:04.491Z,24.70
2018-10-11T11:45:33.334Z,28.30
2018-10-11T11:48:02.166Z,24.70
2018-10-11T11:50:31.054Z,20.53
2018-10-11T11:52:59.987Z,24.83
2018-10-11T11:55:28.823Z,31.83
2018-10-11T11:57:57.736Z,26.10
2018-10-11T12:00:27.210Z,18.80
2018-10-11T12:02:57.552Z,22.73
2018-10-11T12:05:26.407Z,21.97
2018-10-11T12:07:55.256Z,41.03
2018-10-11T12:10:24.153Z,23.13
2018-10-11T12:12:56.086Z,26.40
2018-10-11T12:15:25.948Z,25.27
2018-10-11T12:17:55.906Z,18.60
2018-10-11T12:20:26.028Z,18.60
2018-10-11T12:22:56.033Z,26.13
2018-10-11T12:25:25.037Z,19.87
2018-10-11T12:27:53.926Z,15.93
2018-10-11T12:30:22.805Z,23.43
2018-10-11T12:32:51.718Z,19.27
2018-10-11T12:35:21.810Z,19.70
2018-10-11T12:37:50.836Z,19.30
2018-10-11T12:40:20.091Z,20.40
2018-10-11T12:42:49.066Z,21.00
2018-10-11T12:45:18.438Z,25.27
2018-10-11T12:47:47.239Z,21.93
2018-10-11T12:50:16.070Z,21.87
2018-10-11T12:52:44.898Z,22.40
2018-10-11T12:55:13.741Z,16.53
2018-10-11T12:57:42.736Z,14.03
2018-10-11T13:00:13.904Z,22.03
2018-10-11T13:02:43.045Z,20.27
2018-10-11T13:05:11.831Z,12.73
2018-10-11T13:07:41.098Z,26.53
2018-10-11T13:10:09.935Z,17.73
2018-10-11T13:12:38.763Z,16.80
2018-10-11T13:15:08.344Z,15.30
2018-10-11T13:17:42.814Z,17.27
2018-10-11T13:20:07.019Z,19.50
2018-10-11T13:22:35.853Z,15.90
2018-10-11T13:25:04.823Z,21.53
2018-10-11T13:27:33.698Z,20.10
2018-10-11T13:30:02.641Z,23.80
2018-10-11T13:32:31.499Z,12.53
2018-10-11T13:35:00.372Z,15.80
2018-10-11T13:37:29.203Z,15.23
2018-10-11T13:39:58.163Z,12.40
2018-10-11T13:42:26.855Z,15.00
2018-10-11T13:44:55.703Z,13.83
2018-10-11T13:47:24.616Z,18.20
2018-10-11T13:49:53.565Z,12.80
2018-10-11T13:52:22.622Z,20.03
2018-10-11T13:54:51.332Z,16.70
2018-10-11T13:57:25.121Z,11.63
2018-10-11T13:59:49.174Z,11.47
2018-10-11T14:02:18.080Z,24.67
2018-10-11T14:04:46.956Z,18.50
2018-10-11T14:07:15.811Z,16.07
2018-10-11T14:09:44.655Z,19.93
2018-10-11T14:12:13.524Z,19.40
2018-10-11T14:14:42.403Z,21.30
2018-10-11T14:17:11.306Z,17.90
2018-10-11T14:19:40.156Z,15.67
2018-10-11T14:22:08.991Z,17.07
2018-10-11T14:24:37.797Z,13.93
2018-10-11T14:27:06.727Z,15.63
2018-10-11T14:29:35.562Z,15.47
2018-10-11T14:32:04.592Z,17.30
2018-10-11T14:34:33.465Z,28.20
2018-10-11T14:37:02.420Z,25.30
2018-10-11T14:39:31.227Z,28.40
2018-10-11T14:42:00.137Z,18.83
2018-10-11T14:44:29.724Z,17.03
2018-10-11T14:46:58.575Z,19.83
2018-10-11T14:49:27.400Z,19.87
2018-10-11T14:51:56.358Z,29.93
2018-10-11T14:54:25.188Z,17.00
2018-10-11T14:56:54.078Z,25.13
2018-10-11T14:59:23.064Z,18.20
2018-10-11T15:01:51.931Z,16.80
2018-10-11T15:04:20.805Z,11.57
2018-10-11T15:06:49.642Z,19.30
2018-10-11T15:09:18.480Z,18.47
2018-10-11T15:11:47.450Z,22.23
2018-10-11T15:14:16.303Z,21.40
2018-10-11T15:16:45.161Z,17.50
2018-10-11T15:19:14.011Z,15.87
2018-10-11T15:21:42.839Z,19.33
2018-10-11T15:24:11.761Z,22.50
2018-10-11T15:26:40.591Z,25.73
2018-10-11T15:29:09.475Z,20.83
2018-10-11T15:31:38.271Z,35.30
2018-10-11T15:34:07.599Z,20.30
2018-10-11T15:36:36.439Z,17.67
2018-10-11T15:39:09.008Z,25.53
2018-10-11T15:41:37.928Z,23.80
2018-10-11T15:44:07.286Z,27.83
2018-10-11T15:46:36.222Z,21.67
2018-10-11T15:49:05.139Z,19.57
2018-10-11T15:51:33.974Z,23.33
2018-10-11T15:54:02.867Z,21.87
2018-10-11T15:56:31.758Z,23.97
2018-10-11T15:59:00.609Z,22.33
2018-10-11T16:01:29.480Z,27.23
2018-10-11T16:03:58.370Z,21.70
2018-10-11T16:06:27.211Z,47.10
2018-10-11T16:08:56.099Z,32.50
2018-10-11T16:11:24.941Z,29.33
2018-10-11T16:13:54.459Z,30.00
2018-10-11T16:16:23.276Z,31.50
2018-10-11T16:18:52.144Z,31.30
2018-10-11T16:21:20.955Z,27.23
2018-10-11T16:23:49.895Z,36.17
2018-10-11T16:26:18.780Z,31.03
2018-10-11T16:28:47.602Z,24.70
2018-10-11T16:31:16.441Z,27.53
2018-10-11T16:33:45.366Z,25.53
2018-10-11T16:36:14.202Z,36.67
2018-10-11T16:38:45.454Z,31.23
2018-10-11T16:41:21.202Z,30.83
2018-10-11T16:43:50.148Z,35.03
2018-10-11T16:46:19.008Z,25.43
2018-10-11T16:48:48.016Z,28.03
2018-10-11T16:51:16.810Z,34.60
2018-10-11T16:53:45.794Z,28.73
2018-10-11T16:56:14.717Z,36.97
2018-10-11T16:58:43.662Z,34.00
2018-10-11T17:01:12.660Z,29.23
2018-10-11T17:03:41.567Z,25.70
2018-10-11T17:06:10.421Z,33.83
2018-10-11T17:08:39.347Z,24.60
2018-10-11T17:11:08.403Z,27.47
2018-10-11T17:13:37.536Z,33.57
2018-10-11T17:16:06.370Z,28.00
2018-10-11T17:18:35.206Z,26.50
2018-10-11T17:21:04.060Z,39.17
2018-10-11T17:23:33.102Z,25.43
2018-10-11T17:26:02.056Z,32.13
2018-10-11T17:28:30.954Z,28.33
2018-10-11T17:30:59.835Z,25.40
2018-10-11T17:33:28.743Z,27.67
2018-10-11T17:35:57.619Z,28.53
2018-10-11T17:38:26.889Z,28.37
2018-10-11T17:40:55.757Z,32.17
2018-10-11T17:43:24.566Z,24.53
2018-10-11T17:45:53.857Z,27.83
2018-10-11T17:48:22.672Z,35.67
2018-10-11T17:50:51.480Z,35.23
2018-10-11T17:53:20.383Z,28.93
2018-10-11T17:55:49.216Z,40.60
2018-10-11T17:58:18.048Z,44.60
2018-10-11T18:00:46.872Z,25.80
2018-10-11T18:03:15.823Z,30.07
2018-10-11T18:05:44.599Z,29.60
2018-10-11T18:08:13.549Z,42.60
2018-10-11T18:10:43.214Z,45.37
2018-10-11T18:13:12.058Z,37.43
2018-10-11T18:15:40.875Z,35.97
2018-10-11T18:18:09.703Z,33.40
2018-10-11T18:20:38.534Z,37.33
2018-10-11T18:23:07.383Z,35.00
2018-10-11T18:25:36.436Z,33.33
2018-10-11T18:28:05.451Z,41.77
2018-10-11T18:30:34.351Z,33.40
2018-10-11T18:33:03.222Z,45.17
2018-10-11T18:35:32.163Z,44.27
2018-10-11T18:38:01.011Z,39.27
2018-10-11T18:40:29.842Z,38.33
2018-10-11T18:42:58.749Z,40.90
2018-10-11T18:45:27.574Z,50.83
2018-10-11T18:47:56.439Z,37.90
2018-10-11T18:50:25.328Z,50.20
2018-10-11T18:52:54.220Z,46.67
2018-10-11T18:55:23.047Z,46.23
2018-10-11T18:57:52.006Z,47.57
2018-10-11T19:00:20.857Z,57.90
2018-10-11T19:02:49.743Z,42.37
2018-10-11T19:05:18.583Z,38.10
2018-10-11T19:07:47.514Z,39.37
2018-10-11T19:10:16.327Z,44.20
2018-10-11T19:12:45.158Z,49.50
2018-10-11T19:15:14.036Z,31.40
2018-10-11T19:17:42.935Z,36.27
2018-10-11T19:20:11.758Z,39.20
2018-10-11T19:22:40.615Z,30.30
2018-10-11T19:25:09.456Z,32.90
2018-10-11T19:27:38.284Z,47.13
2018-10-11T19:30:07.147Z,25.80
2018-10-11T19:32:35.965Z,31.87
2018-10-11T19:35:04.969Z,37.20
2018-10-11T19:37:33.862Z,39.23
2018-10-11T19:40:02.702Z,31.30
2018-10-11T19:42:31.554Z,31.03
2018-10-11T19:45:00.374Z,31.20
2018-10-11T19:47:29.246Z,33.07
2018-10-11T19:49:58.111Z,30.10
2018-10-11T19:52:26.962Z,31.57
2018-10-11T19:54:55.767Z,29.90
2018-10-11T19:57:24.750Z,32.53
2018-10-11T19:59:53.579Z,29.40
2018-10-11T20:02:22.432Z,29.10
2018-10-11T20:04:51.285Z,30.10
2018-10-11T20:07:20.110Z,32.30
2018-10-11T20:09:48.978Z,36.27
2018-10-11T20:12:17.878Z,39.80
2018-10-11T20:14:46.715Z,29.47
2018-10-11T20:17:15.585Z,44.40
2018-10-11T20:19:44.567Z,32.03
2018-10-11T20:22:14.067Z,30.90
2018-10-11T20:24:43.168Z,32.67
2018-10-11T20:27:12.015Z,26.23
2018-10-11T20:29:41.010Z,29.57
2018-10-11T20:32:10.758Z,29.57
2018-10-11T20:34:39.586Z,38.00
2018-10-11T20:37:08.422Z,29.17
2018-10-11T20:39:37.231Z,32.80
2018-10-11T20:42:06.074Z,50.97
2018-10-11T20:44:34.911Z,28.10
2018-10-11T20:47:03.756Z,29.40
2018-10-11T20:49:32.769Z,37.80
2018-10-11T20:52:01.571Z,28.63
2018-10-11T20:54:30.398Z,26.73
2018-10-11T20:56:59.256Z,22.83
2018-10-11T20:59:28.215Z,27.40
2018-10-11T21:01:57.027Z,34.67
2018-10-11T21:04:25.871Z,33.43
2018-10-11T21:06:54.698Z,31.63
2018-10-11T21:09:23.519Z,27.27
2018-10-11T21:11:52.503Z,25.40
2018-10-11T21:14:21.350Z,23.00
2018-10-11T21:16:50.236Z,38.97
2018-10-11T21:19:19.079Z,22.10
2018-10-11T21:21:47.907Z,28.83
2018-10-11T21:24:16.850Z,24.90
2018-10-11T21:26:45.722Z,36.93
2018-10-11T21:29:14.569Z,30.37
2018-10-11T21:31:43.435Z,33.10
2018-10-11T21:34:12.421Z,32.03
2018-10-11T21:36:41.197Z,29.23
2018-10-11T21:39:12.106Z,23.40
2018-10-11T21:41:41.423Z,24.30
2018-10-11T21:44:10.491Z,23.00
2018-10-11T21:46:39.479Z,27.27
2018-10-11T21:49:08.324Z,29.90
2018-10-11T21:51:37.196Z,24.43
2018-10-11T21:54:06.021Z,24.23
2018-10-11T21:56:34.940Z,27.83
2018-10-11T21:59:03.859Z,23.23
2018-10-11T22:01:32.675Z,25.50
2018-10-11T22:04:01.511Z,22.07
2018-10-11T22:06:30.346Z,26.07
2018-10-11T22:08:59.182Z,23.60
2018-10-11T22:11:28.009Z,32.00
2018-10-11T22:13:56.839Z,22.60
2018-10-11T22:16:25.688Z,27.53
2018-10-11T22:18:54.537Z,26.40
2018-10-11T22:21:23.399Z,24.20
2018-10-11T22:23:52.322Z,25.50
2018-10-11T22:26:21.156Z,35.97
2018-10-11T22:28:50.100Z,26.23
2018-10-11T22:31:18.917Z,23.27
2018-10-11T22:33:47.730Z,26.77
2018-10-11T22:36:16.570Z,22.53
2018-10-11T22:38:45.387Z,24.63
2018-10-11T22:41:14.250Z,23.13
2018-10-11T22:43:43.332Z,30.13
2018-10-11T22:46:12.935Z,26.83
2018-10-11T22:48:42.351Z,26.63
2018-10-11T22:51:11.644Z,26.50
2018-10-11T22:53:40.652Z,40.67
2018-10-11T22:56:09.487Z,31.83
2018-10-11T22:58:38.331Z,32.70
2018-10-11T23:01:07.247Z,23.97
2018-10-11T23:03:36.099Z,19.70
2018-10-11T23:06:04.959Z,32.43
2018-10-11T23:08:33.942Z,26.50
2018-10-11T23:11:02.838Z,27.13
2018-10-11T23:13:31.763Z,29.40
2018-10-11T23:16:00.587Z,33.20
2018-10-11T23:18:29.413Z,24.80
2018-10-11T23:20:59.703Z,26.90
2018-10-11T23:23:28.537Z,26.37
2018-10-11T23:25:57.363Z,32.70
2018-10-11T23:28:26.255Z,32.53
2018-10-11T23:30:55.117Z,23.03
2018-10-11T23:33:23.978Z,27.10
2018-10-11T23:35:52.848Z,22.67
2018-10-11T23:38:21.786Z,28.67
2018-10-11T23:40:50.710Z,26.10
2018-10-11T23:43:19.547Z,24.90
2018-10-11T23:45:48.354Z,22.87
2018-10-11T23:48:17.196Z,33.37
2018-10-11T23:50:46.015Z,25.73
2018-10-11T23:53:14.854Z,34.53
2018-10-11T23:55:43.694Z,29.97
2018-10-11T23:58:12.503Z,28.40
